sensor_id;sensor_type;location;lat;lon;timestamp;pressure;altitude;pressure_sealevel;temperature;humidity
16451;BME280;12243;42.708;23.310;2023-02-28T00:02:12;95480.94;;;8.14;100.00
16451;BME280;12243;42.708;23.310;2023-02-28T00:04:39;95476.44;;;8.16;100.00
16451;BME280;12243;42.708;23.310;2023-02-28T00:07:05;95480.00;;;8.15;100.00
16451;BME280;12243;42.708;23.310;2023-02-28T00:09:32;95487.78;;;8.15;100.00
16451;BME280;12243;42.708;23.310;2023-02-28T00:12:01;95492.97;;;8.15;100.00
16451;BME280;12243;42.708;23.310;2023-02-28T00:14:40;95495.03;;;8.09;100.00
16451;BME280;12243;42.708;23.310;2023-02-28T00:17:07;95492.31;;;7.98;100.00
16451;BME280;12243;42.708;23.310;2023-02-28T00:19:34;95489.19;;;7.93;100.00
16451;BME280;12243;42.708;23.310;2023-02-28T00:22:01;95506.09;;;7.86;100.00
16451;BME280;12243;42.708;23.310;2023-02-28T00:24:28;95506.81;;;7.88;100.00
16451;BME280;12243;42.708;23.310;2023-02-28T00:26:55;95511.91;;;7.90;100.00
16451;BME280;12243;42.708;23.310;2023-02-28T00:29:24;95521.63;;;7.86;100.00
16451;BME280;12243;42.708;23.310;2023-02-28T00:31:51;95516.75;;;7.81;100.00
16451;BME280;12243;42.708;23.310;2023-02-28T00:34:18;95509.63;;;7.85;100.00
16451;BME280;12243;42.708;23.310;2023-02-28T00:36:46;95510.94;;;7.78;100.00
16451;BME280;12243;42.708;23.310;2023-02-28T00:39:15;95512.28;;;7.71;100.00
16451;BME280;12243;42.708;23.310;2023-02-28T00:41:43;95514.34;;;7.51;100.00
16451;BME280;12243;42.708;23.310;2023-02-28T00:44:11;95509.16;;;7.51;100.00
16451;BME280;12243;42.708;23.310;2023-02-28T00:46:39;95517.94;;;7.36;100.00
16451;BME280;12243;42.708;23.310;2023-02-28T00:49:06;95506.13;;;7.45;100.00
16451;BME280;12243;42.708;23.310;2023-02-28T00:51:34;95499.97;;;7.33;100.00
16451;BME280;12243;42.708;23.310;2023-02-28T00:54:01;95499.78;;;7.22;100.00
16451;BME280;12243;42.708;23.310;2023-02-28T00:56:28;95489.47;;;7.07;100.00
16451;BME280;12243;42.708;23.310;2023-02-28T00:58:55;95494.31;;;6.99;100.00
16451;BME280;12243;42.708;23.310;2023-02-28T01:01:22;95502.63;;;6.90;100.00
16451;BME280;12243;42.708;23.310;2023-02-28T01:03:50;95500.13;;;6.88;100.00
16451;BME280;12243;42.708;23.310;2023-02-28T01:06:17;95497.09;;;6.82;100.00
16451;BME280;12243;42.708;23.310;2023-02-28T01:08:44;95493.09;;;6.76;100.00
16451;BME280;12243;42.708;23.310;2023-02-28T01:11:13;95495.25;;;6.70;100.00
16451;BME280;12243;42.708;23.310;2023-02-28T01:13:42;95508.19;;;6.84;100.00
16451;BME280;12243;42.708;23.310;2023-02-28T01:16:12;95503.94;;;6.68;100.00
16451;BME280;12243;42.708;23.310;2023-02-28T01:18:39;95504.38;;;6.75;100.00
16451;BME280;12243;42.708;23.310;2023-02-28T01:21:10;95497.09;;;6.67;100.00
16451;BME280;12243;42.708;23.310;2023-02-28T01:23:38;95503.22;;;6.52;100.00
16451;BME280;12243;42.708;23.310;2023-02-28T01:26:06;95501.16;;;6.57;100.00
16451;BME280;12243;42.708;23.310;2023-02-28T01:28:33;95488.50;;;6.53;100.00
16451;BME280;12243;42.708;23.310;2023-02-28T01:31:01;95497.56;;;6.60;100.00
16451;BME280;12243;42.708;23.310;2023-02-28T01:33:28;95498.47;;;6.59;100.00
16451;BME280;12243;42.708;23.310;2023-02-28T01:35:58;95484.63;;;6.60;100.00
16451;BME280;12243;42.708;23.310;2023-02-28T01:39:01;95487.28;;;6.58;100.00
16451;BME280;12243;42.708;23.310;2023-02-28T01:41:29;95492.00;;;6.52;100.00
16451;BME280;12243;42.708;23.310;2023-02-28T01:44:02;95504.66;;;6.42;100.00
16451;BME280;12243;42.708;23.310;2023-02-28T01:46:31;95498.56;;;6.43;100.00
16451;BME280;12243;42.708;23.310;2023-02-28T01:49:02;95503.63;;;6.30;100.00
16451;BME280;12243;42.708;23.310;2023-02-28T01:51:37;95499.03;;;6.35;100.00
16451;BME280;12243;42.708;23.310;2023-02-28T01:54:09;95497.50;;;6.17;100.00
16451;BME280;12243;42.708;23.310;2023-02-28T01:56:43;95494.84;;;6.18;100.00
16451;BME280;12243;42.708;23.310;2023-02-28T01:59:14;95500.63;;;6.08;100.00
16451;BME280;12243;42.708;23.310;2023-02-28T02:01:44;95499.34;;;6.15;100.00
16451;BME280;12243;42.708;23.310;2023-02-28T02:04:11;95509.91;;;5.96;100.00
16451;BME280;12243;42.708;23.310;2023-02-28T02:06:44;95503.66;;;6.00;100.00
16451;BME280;12243;42.708;23.310;2023-02-28T02:09:12;95503.22;;;6.08;100.00
16451;BME280;12243;42.708;23.310;2023-02-28T02:11:41;95503.53;;;6.32;100.00
16451;BME280;12243;42.708;23.310;2023-02-28T02:14:21;95494.50;;;6.25;100.00
16451;BME280;12243;42.708;23.310;2023-02-28T02:17:03;95497.81;;;6.27;100.00
16451;BME280;12243;42.708;23.310;2023-02-28T02:19:50;95498.91;;;6.23;100.00
16451;BME280;12243;42.708;23.310;2023-02-28T02:22:35;95480.81;;;6.23;100.00
16451;BME280;12243;42.708;23.310;2023-02-28T02:25:17;95492.97;;;6.20;100.00
16451;BME280;12243;42.708;23.310;2023-02-28T02:28:10;95485.94;;;6.08;100.00
16451;BME280;12243;42.708;23.310;2023-02-28T02:34:16;95503.69;;;6.14;100.00
16451;BME280;12243;42.708;23.310;2023-02-28T02:36:50;95497.06;;;6.25;100.00
16451;BME280;12243;42.708;23.310;2023-02-28T02:39:24;95489.31;;;6.25;100.00
16451;BME280;12243;42.708;23.310;2023-02-28T02:41:59;95495.56;;;6.20;100.00
16451;BME280;12243;42.708;23.310;2023-02-28T02:44:31;95506.50;;;6.26;100.00
16451;BME280;12243;42.708;23.310;2023-02-28T02:47:05;95511.78;;;6.38;100.00
16451;BME280;12243;42.708;23.310;2023-02-28T02:49:38;95516.41;;;6.48;100.00
16451;BME280;12243;42.708;23.310;2023-02-28T02:52:08;95509.28;;;6.51;100.00
16451;BME280;12243;42.708;23.310;2023-02-28T02:54:38;95514.25;;;6.40;100.00
16451;BME280;12243;42.708;23.310;2023-02-28T02:57:09;95512.78;;;6.36;100.00
16451;BME280;12243;42.708;23.310;2023-02-28T02:59:39;95507.63;;;6.36;100.00
16451;BME280;12243;42.708;23.310;2023-02-28T03:02:11;95506.31;;;6.29;100.00
16451;BME280;12243;42.708;23.310;2023-02-28T03:04:45;95509.44;;;6.19;100.00
16451;BME280;12243;42.708;23.310;2023-02-28T03:07:12;95519.53;;;6.24;100.00
16451;BME280;12243;42.708;23.310;2023-02-28T03:09:40;95516.31;;;6.35;100.00
16451;BME280;12243;42.708;23.310;2023-02-28T03:12:10;95525.19;;;6.45;100.00
16451;BME280;12243;42.708;23.310;2023-02-28T03:14:45;95532.56;;;6.51;100.00
16451;BME280;12243;42.708;23.310;2023-02-28T03:17:28;95541.75;;;6.57;100.00
16451;BME280;12243;42.708;23.310;2023-02-28T03:20:06;95545.91;;;6.59;100.00
16451;BME280;12243;42.708;23.310;2023-02-28T03:22:45;95542.03;;;6.66;100.00
16451;BME280;12243;42.708;23.310;2023-02-28T03:25:20;95544.81;;;6.78;100.00
16451;BME280;12243;42.708;23.310;2023-02-28T03:27:54;95549.03;;;6.79;100.00
16451;BME280;12243;42.708;23.310;2023-02-28T03:30:26;95542.56;;;6.86;100.00
16451;BME280;12243;42.708;23.310;2023-02-28T03:32:58;95552.03;;;6.87;100.00
16451;BME280;12243;42.708;23.310;2023-02-28T03:35:31;95553.56;;;6.89;100.00
16451;BME280;12243;42.708;23.310;2023-02-28T03:38:04;95552.56;;;6.92;100.00
16451;BME280;12243;42.708;23.310;2023-02-28T03:40:33;95551.38;;;6.98;100.00
16451;BME280;12243;42.708;23.310;2023-02-28T03:43:07;95555.91;;;6.94;100.00
16451;BME280;12243;42.708;23.310;2023-02-28T03:45:38;95564.56;;;7.07;100.00
16451;BME280;12243;42.708;23.310;2023-02-28T03:48:09;95554.97;;;7.09;100.00
16451;BME280;12243;42.708;23.310;2023-02-28T03:50:42;95563.94;;;7.04;100.00
16451;BME280;12243;42.708;23.310;2023-02-28T03:53:13;95556.63;;;6.96;100.00
16451;BME280;12243;42.708;23.310;2023-02-28T03:55:42;95566.69;;;7.01;100.00
16451;BME280;12243;42.708;23.310;2023-02-28T03:58:15;95568.38;;;7.02;100.00
16451;BME280;12243;42.708;23.310;2023-02-28T04:00:49;95569.41;;;6.99;100.00
16451;BME280;12243;42.708;23.310;2023-02-28T04:03:22;95566.06;;;6.97;100.00
16451;BME280;12243;42.708;23.310;2023-02-28T04:05:52;95565.63;;;6.90;100.00
16451;BME280;12243;42.708;23.310;2023-02-28T04:08:20;95569.22;;;6.88;100.00
16451;BME280;12243;42.708;23.310;2023-02-28T04:10:51;95572.34;;;7.07;100.00
16451;BME280;12243;42.708;23.310;2023-02-28T04:13:20;95566.34;;;7.07;100.00
16451;BME280;12243;42.708;23.310;2023-02-28T04:15:46;95557.38;;;6.98;100.00
16451;BME280;12243;42.708;23.310;2023-02-28T04:18:13;95562.56;;;6.98;100.00
16451;BME280;12243;42.708;23.310;2023-02-28T04:20:40;95567.28;;;6.91;100.00
16451;BME280;12243;42.708;23.310;2023-02-28T04:23:11;95559.78;;;6.87;100.00
16451;BME280;12243;42.708;23.310;2023-02-28T04:25:38;95561.16;;;6.92;100.00
16451;BME280;12243;42.708;23.310;2023-02-28T04:28:06;95563.47;;;6.83;100.00
16451;BME280;12243;42.708;23.310;2023-02-28T04:30:33;95569.94;;;6.76;100.00
16451;BME280;12243;42.708;23.310;2023-02-28T04:33:00;95564.97;;;6.87;100.00
16451;BME280;12243;42.708;23.310;2023-02-28T04:35:27;95569.94;;;6.76;100.00
16451;BME280;12243;42.708;23.310;2023-02-28T04:37:54;95563.63;;;6.80;100.00
16451;BME280;12243;42.708;23.310;2023-02-28T04:40:22;95572.63;;;6.74;100.00
16451;BME280;12243;42.708;23.310;2023-02-28T04:42:49;95576.59;;;6.80;100.00
16451;BME280;12243;42.708;23.310;2023-02-28T04:45:16;95572.06;;;6.83;100.00
16451;BME280;12243;42.708;23.310;2023-02-28T04:47:43;95570.16;;;6.87;100.00
16451;BME280;12243;42.708;23.310;2023-02-28T04:50:10;95589.16;;;6.86;100.00
16451;BME280;12243;42.708;23.310;2023-02-28T04:52:37;95590.28;;;6.82;100.00
16451;BME280;12243;42.708;23.310;2023-02-28T04:55:05;95596.41;;;6.81;100.00
16451;BME280;12243;42.708;23.310;2023-02-28T04:57:33;95597.13;;;6.83;100.00
16451;BME280;12243;42.708;23.310;2023-02-28T05:00:00;95587.88;;;6.79;100.00
16451;BME280;12243;42.708;23.310;2023-02-28T05:02:34;95589.53;;;6.80;100.00
16451;BME280;12243;42.708;23.310;2023-02-28T05:05:00;95591.41;;;6.78;100.00
16451;BME280;12243;42.708;23.310;2023-02-28T05:07:27;95589.91;;;6.74;100.00
16451;BME280;12243;42.708;23.310;2023-02-28T05:09:54;95588.06;;;6.76;100.00
16451;BME280;12243;42.708;23.310;2023-02-28T05:12:21;95589.75;;;6.77;100.00
16451;BME280;12243;42.708;23.310;2023-02-28T05:14:50;95596.41;;;6.81;100.00
16451;BME280;12243;42.708;23.310;2023-02-28T05:17:16;95592.75;;;6.83;100.00
16451;BME280;12243;42.708;23.310;2023-02-28T05:19:43;95594.34;;;6.86;100.00
16451;BME280;12243;42.708;23.310;2023-02-28T05:22:13;95593.44;;;6.87;100.00
16451;BME280;12243;42.708;23.310;2023-02-28T05:24:41;95599.28;;;6.90;100.00
16451;BME280;12243;42.708;23.310;2023-02-28T05:27:08;95612.66;;;6.97;100.00
16451;BME280;12243;42.708;23.310;2023-02-28T05:29:35;95618.41;;;7.02;100.00
16451;BME280;12243;42.708;23.310;2023-02-28T05:32:10;95616.19;;;6.96;100.00
16451;BME280;12243;42.708;23.310;2023-02-28T05:34:37;95612.47;;;7.00;100.00
16451;BME280;12243;42.708;23.310;2023-02-28T05:37:04;95626.38;;;6.99;100.00
16451;BME280;12243;42.708;23.310;2023-02-28T05:39:31;95617.84;;;6.97;100.00
16451;BME280;12243;42.708;23.310;2023-02-28T05:41:58;95622.19;;;6.97;100.00
16451;BME280;12243;42.708;23.310;2023-02-28T05:44:25;95621.94;;;7.01;100.00
16451;BME280;12243;42.708;23.310;2023-02-28T05:46:52;95623.50;;;7.04;100.00
16451;BME280;12243;42.708;23.310;2023-02-28T05:49:20;95624.13;;;7.07;100.00
16451;BME280;12243;42.708;23.310;2023-02-28T05:51:47;95622.13;;;7.12;100.00
16451;BME280;12243;42.708;23.310;2023-02-28T05:54:14;95628.59;;;7.20;100.00
16451;BME280;12243;42.708;23.310;2023-02-28T05:56:41;95635.78;;;7.14;100.00
16451;BME280;12243;42.708;23.310;2023-02-28T05:59:19;95639.78;;;7.20;100.00
16451;BME280;12243;42.708;23.310;2023-02-28T06:01:46;95637.19;;;7.20;100.00
16451;BME280;12243;42.708;23.310;2023-02-28T06:04:16;95635.06;;;7.27;100.00
16451;BME280;12243;42.708;23.310;2023-02-28T06:06:46;95631.72;;;7.25;100.00
16451;BME280;12243;42.708;23.310;2023-02-28T06:09:13;95627.28;;;7.27;100.00
16451;BME280;12243;42.708;23.310;2023-02-28T06:11:40;95631.72;;;7.25;100.00
16451;BME280;12243;42.708;23.310;2023-02-28T06:14:09;95629.13;;;7.39;100.00
16451;BME280;12243;42.708;23.310;2023-02-28T06:16:40;95632.47;;;7.41;100.00
16451;BME280;12243;42.708;23.310;2023-02-28T06:19:08;95624.69;;;7.41;100.00
16451;BME280;12243;42.708;23.310;2023-02-28T06:21:36;95629.69;;;7.58;100.00
16451;BME280;12243;42.708;23.310;2023-02-28T06:24:05;95626.56;;;7.53;100.00
16451;BME280;12243;42.708;23.310;2023-02-28T06:26:32;95636.34;;;7.48;100.00
16451;BME280;12243;42.708;23.310;2023-02-28T06:28:59;95629.22;;;7.52;100.00
16451;BME280;12243;42.708;23.310;2023-02-28T06:31:27;95627.00;;;7.46;100.00
16451;BME280;12243;42.708;23.310;2023-02-28T06:33:55;95633.94;;;7.45;100.00
16451;BME280;12243;42.708;23.310;2023-02-28T06:36:22;95648.00;;;7.55;100.00
16451;BME280;12243;42.708;23.310;2023-02-28T06:38:49;95650.22;;;7.61;100.00
16451;BME280;12243;42.708;23.310;2023-02-28T06:41:22;95650.41;;;7.58;100.00
16451;BME280;12243;42.708;23.310;2023-02-28T06:43:49;95662.25;;;7.62;100.00
16451;BME280;12243;42.708;23.310;2023-02-28T06:46:16;95653.16;;;7.70;100.00
16451;BME280;12243;42.708;23.310;2023-02-28T06:48:43;95654.38;;;7.78;100.00
16451;BME280;12243;42.708;23.310;2023-02-28T06:51:13;95650.16;;;7.90;100.00
16451;BME280;12243;42.708;23.310;2023-02-28T06:53:41;95654.97;;;7.96;100.00
16451;BME280;12243;42.708;23.310;2023-02-28T06:56:09;95645.69;;;8.06;100.00
16451;BME280;12243;42.708;23.310;2023-02-28T06:58:38;95657.97;;;8.17;100.00
16451;BME280;12243;42.708;23.310;2023-02-28T07:01:06;95654.88;;;8.25;100.00
16451;BME280;12243;42.708;23.310;2023-02-28T07:03:34;95658.41;;;8.24;100.00
16451;BME280;12243;42.708;23.310;2023-02-28T07:06:02;95658.63;;;8.21;100.00
16451;BME280;12243;42.708;23.310;2023-02-28T07:08:29;95651.53;;;8.23;100.00
16451;BME280;12243;42.708;23.310;2023-02-28T07:10:57;95653.75;;;8.29;100.00
16451;BME280;12243;42.708;23.310;2023-02-28T07:13:24;95651.34;;;8.26;100.00
16451;BME280;12243;42.708;23.310;2023-02-28T07:15:57;95655.31;;;8.31;100.00
16451;BME280;12243;42.708;23.310;2023-02-28T07:18:24;95660.41;;;8.33;100.00
16451;BME280;12243;42.708;23.310;2023-02-28T07:20:52;95650.97;;;8.32;100.00
16451;BME280;12243;42.708;23.310;2023-02-28T07:23:20;95650.25;;;8.30;100.00
16451;BME280;12243;42.708;23.310;2023-02-28T07:25:47;95653.09;;;8.13;100.00
16451;BME280;12243;42.708;23.310;2023-02-28T07:28:14;95650.56;;;8.11;100.00
16451;BME280;12243;42.708;23.310;2023-02-28T07:30:41;95662.72;;;8.10;100.00
16451;BME280;12243;42.708;23.310;2023-02-28T07:33:09;95652.78;;;8.17;100.00
16451;BME280;12243;42.708;23.310;2023-02-28T07:35:36;95657.47;;;8.39;100.00
16451;BME280;12243;42.708;23.310;2023-02-28T07:38:03;95654.16;;;8.50;100.00
16451;BME280;12243;42.708;23.310;2023-02-28T07:40:33;95652.94;;;8.55;100.00
16451;BME280;12243;42.708;23.310;2023-02-28T07:43:00;95655.44;;;8.57;100.00
16451;BME280;12243;42.708;23.310;2023-02-28T07:45:28;95665.84;;;8.70;100.00
16451;BME280;12243;42.708;23.310;2023-02-28T07:47:55;95661.91;;;8.77;100.00
16451;BME280;12243;42.708;23.310;2023-02-28T07:50:24;95657.78;;;8.87;100.00
16451;BME280;12243;42.708;23.310;2023-02-28T07:52:51;95650.50;;;8.92;100.00
16451;BME280;12243;42.708;23.310;2023-02-28T07:55:18;95650.63;;;9.03;100.00
16451;BME280;12243;42.708;23.310;2023-02-28T07:57:45;95643.78;;;9.15;100.00
16451;BME280;12243;42.708;23.310;2023-02-28T08:00:12;95652.81;;;9.35;100.00
16451;BME280;12243;42.708;23.310;2023-02-28T08:02:39;95639.50;;;9.52;100.00
16451;BME280;12243;42.708;23.310;2023-02-28T08:05:07;95645.25;;;9.69;100.00
16451;BME280;12243;42.708;23.310;2023-02-28T08:07:36;95644.44;;;9.81;100.00
16451;BME280;12243;42.708;23.310;2023-02-28T08:10:03;95644.47;;;10.05;100.00
16451;BME280;12243;42.708;23.310;2023-02-28T08:12:31;95646.50;;;10.25;100.00
16451;BME280;12243;42.708;23.310;2023-02-28T08:14:58;95647.03;;;10.42;100.00
16451;BME280;12243;42.708;23.310;2023-02-28T08:17:25;95656.91;;;10.49;99.97
16451;BME280;12243;42.708;23.310;2023-02-28T08:19:52;95654.56;;;10.58;98.37
16451;BME280;12243;42.708;23.310;2023-02-28T08:22:19;95656.59;;;10.65;96.80
16451;BME280;12243;42.708;23.310;2023-02-28T08:24:47;95657.66;;;10.63;96.70
16451;BME280;12243;42.708;23.310;2023-02-28T08:27:14;95654.34;;;10.61;97.51
16451;BME280;12243;42.708;23.310;2023-02-28T08:29:41;95664.13;;;10.81;97.45
16451;BME280;12243;42.708;23.310;2023-02-28T08:32:08;95659.84;;;10.80;97.54
16451;BME280;12243;42.708;23.310;2023-02-28T08:34:35;95660.13;;;10.88;97.91
16451;BME280;12243;42.708;23.310;2023-02-28T08:37:05;95661.09;;;10.99;97.32
16451;BME280;12243;42.708;23.310;2023-02-28T08:39:34;95665.50;;;11.09;96.78
16451;BME280;12243;42.708;23.310;2023-02-28T08:42:02;95661.59;;;11.15;97.00
16451;BME280;12243;42.708;23.310;2023-02-28T08:44:29;95657.19;;;11.04;96.83
16451;BME280;12243;42.708;23.310;2023-02-28T08:46:56;95662.50;;;10.91;97.58
16451;BME280;12243;42.708;23.310;2023-02-28T08:49:23;95667.25;;;10.97;98.75
16451;BME280;12243;42.708;23.310;2023-02-28T08:51:50;95662.31;;;11.17;97.96
16451;BME280;12243;42.708;23.310;2023-02-28T08:54:17;95658.75;;;11.07;98.10
16451;BME280;12243;42.708;23.310;2023-02-28T08:56:45;95654.03;;;11.23;98.67
16451;BME280;12243;42.708;23.310;2023-02-28T08:59:14;95658.06;;;11.27;98.32
16451;BME280;12243;42.708;23.310;2023-02-28T09:01:41;95661.38;;;11.29;97.89
16451;BME280;12243;42.708;23.310;2023-02-28T09:04:09;95657.94;;;11.29;98.60
16451;BME280;12243;42.708;23.310;2023-02-28T09:06:37;95659.28;;;11.34;98.15
16451;BME280;12243;42.708;23.310;2023-02-28T09:09:04;95655.69;;;11.35;97.46
16451;BME280;12243;42.708;23.310;2023-02-28T09:11:33;95655.09;;;11.32;97.30
16451;BME280;12243;42.708;23.310;2023-02-28T09:14:01;95655.94;;;11.32;96.47
16451;BME280;12243;42.708;23.310;2023-02-28T09:16:31;95649.03;;;11.09;96.89
16451;BME280;12243;42.708;23.310;2023-02-28T09:18:58;95650.63;;;10.87;98.22
16451;BME280;12243;42.708;23.310;2023-02-28T09:21:25;95646.78;;;10.69;99.22
16451;BME280;12243;42.708;23.310;2023-02-28T09:23:52;95647.09;;;10.53;99.82
16451;BME280;12243;42.708;23.310;2023-02-28T09:26:21;95649.13;;;10.61;100.00
16451;BME280;12243;42.708;23.310;2023-02-28T09:28:49;95654.03;;;10.77;100.00
16451;BME280;12243;42.708;23.310;2023-02-28T09:31:18;95649.09;;;10.85;99.39
16451;BME280;12243;42.708;23.310;2023-02-28T09:33:49;95654.72;;;11.03;98.88
16451;BME280;12243;42.708;23.310;2023-02-28T09:36:17;95653.13;;;10.89;97.40
16451;BME280;12243;42.708;23.310;2023-02-28T09:38:44;95641.41;;;10.94;98.17
16451;BME280;12243;42.708;23.310;2023-02-28T09:41:14;95649.97;;;11.08;97.86
16451;BME280;12243;42.708;23.310;2023-02-28T09:43:45;95647.75;;;11.14;97.54
16451;BME280;12243;42.708;23.310;2023-02-28T09:46:25;95642.66;;;11.24;98.07
16451;BME280;12243;42.708;23.310;2023-02-28T09:48:55;95646.47;;;11.42;96.98
16451;BME280;12243;42.708;23.310;2023-02-28T09:51:40;95634.25;;;11.43;96.44
16451;BME280;12243;42.708;23.310;2023-02-28T09:54:14;95640.78;;;11.49;97.92
16451;BME280;12243;42.708;23.310;2023-02-28T09:56:47;95630.56;;;11.79;95.61
16451;BME280;12243;42.708;23.310;2023-02-28T09:59:32;95626.66;;;11.85;95.77
16451;BME280;12243;42.708;23.310;2023-02-28T10:02:14;95629.13;;;12.09;95.48
16451;BME280;12243;42.708;23.310;2023-02-28T10:04:48;95622.69;;;12.24;93.88
16451;BME280;12243;42.708;23.310;2023-02-28T10:07:30;95623.84;;;12.31;91.48
16451;BME280;12243;42.708;23.310;2023-02-28T10:10:04;95621.63;;;12.15;91.94
16451;BME280;12243;42.708;23.310;2023-02-28T10:12:31;95613.56;;;12.19;92.43
16451;BME280;12243;42.708;23.310;2023-02-28T10:15:00;95619.84;;;12.27;92.92
16451;BME280;12243;42.708;23.310;2023-02-28T10:17:36;95608.81;;;12.45;92.35
16451;BME280;12243;42.708;23.310;2023-02-28T10:20:10;95606.84;;;12.69;91.70
16451;BME280;12243;42.708;23.310;2023-02-28T10:22:49;95612.06;;;12.69;88.79
16451;BME280;12243;42.708;23.310;2023-02-28T10:25:19;95604.22;;;12.69;89.60
16451;BME280;12243;42.708;23.310;2023-02-28T10:27:46;95597.53;;;12.76;88.42
16451;BME280;12243;42.708;23.310;2023-02-28T10:30:13;95595.50;;;12.59;87.89
16451;BME280;12243;42.708;23.310;2023-02-28T10:32:50;95599.28;;;12.55;88.02
16451;BME280;12243;42.708;23.310;2023-02-28T10:35:21;95592.91;;;12.48;89.46
16451;BME280;12243;42.708;23.310;2023-02-28T10:37:51;95591.75;;;12.73;89.15
16451;BME280;12243;42.708;23.310;2023-02-28T10:40:31;95582.22;;;12.93;86.69
16451;BME280;12243;42.708;23.310;2023-02-28T10:43:00;95578.28;;;12.98;87.21
16451;BME280;12243;42.708;23.310;2023-02-28T10:45:29;95564.28;;;13.09;85.98
16451;BME280;12243;42.708;23.310;2023-02-28T10:47:59;95566.69;;;13.43;84.14
16451;BME280;12243;42.708;23.310;2023-02-28T10:50:37;95561.09;;;13.26;84.82
16451;BME280;12243;42.708;23.310;2023-02-28T10:53:17;95569.72;;;13.48;84.46
16451;BME280;12243;42.708;23.310;2023-02-28T10:55:56;95557.66;;;13.66;83.63
16451;BME280;12243;42.708;23.310;2023-02-28T10:58:26;95551.22;;;13.70;83.47
16451;BME280;12243;42.708;23.310;2023-02-28T11:00:54;95551.59;;;13.66;83.09
16451;BME280;12243;42.708;23.310;2023-02-28T11:03:25;95547.72;;;13.60;84.48
16451;BME280;12243;42.708;23.310;2023-02-28T11:05:54;95533.69;;;13.80;84.46
16451;BME280;12243;42.708;23.310;2023-02-28T11:08:21;95536.88;;;13.74;85.08
16451;BME280;12243;42.708;23.310;2023-02-28T11:10:54;95532.22;;;13.78;84.28
16451;BME280;12243;42.708;23.310;2023-02-28T11:13:26;95539.94;;;13.89;84.20
16451;BME280;12243;42.708;23.310;2023-02-28T11:15:55;95531.13;;;14.00;82.18
16451;BME280;12243;42.708;23.310;2023-02-28T11:18:27;95533.59;;;13.82;82.77
16451;BME280;12243;42.708;23.310;2023-02-28T11:20:58;95535.38;;;13.81;82.35
16451;BME280;12243;42.708;23.310;2023-02-28T11:23:30;95526.50;;;13.53;83.28
16451;BME280;12243;42.708;23.310;2023-02-28T11:26:00;95530.47;;;13.48;84.18
16451;BME280;12243;42.708;23.310;2023-02-28T11:28:32;95525.50;;;13.45;83.96
16451;BME280;12243;42.708;23.310;2023-02-28T11:31:08;95521.28;;;13.63;83.79
16451;BME280;12243;42.708;23.310;2023-02-28T11:33:42;95524.47;;;13.76;82.44
16451;BME280;12243;42.708;23.310;2023-02-28T11:36:14;95511.81;;;13.81;81.89
16451;BME280;12243;42.708;23.310;2023-02-28T11:38:42;95527.53;;;13.81;82.65
16451;BME280;12243;42.708;23.310;2023-02-28T11:41:24;95505.75;;;13.71;82.57
16451;BME280;12243;42.708;23.310;2023-02-28T11:44:04;95511.84;;;13.41;82.38
16451;BME280;12243;42.708;23.310;2023-02-28T11:46:38;95509.97;;;13.22;82.76
16451;BME280;12243;42.708;23.310;2023-02-28T11:49:21;95509.19;;;13.31;83.17
16451;BME280;12243;42.708;23.310;2023-02-28T11:51:57;95510.91;;;13.52;82.67
16451;BME280;12243;42.708;23.310;2023-02-28T11:57:24;95508.75;;;13.76;81.36
16451;BME280;12243;42.708;23.310;2023-02-28T12:00:02;95509.31;;;13.70;80.67
16451;BME280;12243;42.708;23.310;2023-02-28T12:02:49;95506.38;;;13.54;80.42
16451;BME280;12243;42.708;23.310;2023-02-28T12:05:27;95504.16;;;13.40;80.66
16451;BME280;12243;42.708;23.310;2023-02-28T12:08:06;95500.16;;;13.45;80.95
16451;BME280;12243;42.708;23.310;2023-02-28T12:10:44;95501.78;;;13.37;80.84
16451;BME280;12243;42.708;23.310;2023-02-28T12:13:21;95503.19;;;13.41;80.54
16451;BME280;12243;42.708;23.310;2023-02-28T12:16:13;95501.69;;;13.17;82.07
16451;BME280;12243;42.708;23.310;2023-02-28T12:21:48;95501.53;;;13.09;82.77
16451;BME280;12243;42.708;23.310;2023-02-28T12:24:45;95507.97;;;13.05;82.06
16451;BME280;12243;42.708;23.310;2023-02-28T12:27:19;95509.38;;;13.09;82.39
16451;BME280;12243;42.708;23.310;2023-02-28T12:29:51;95499.44;;;13.33;81.99
16451;BME280;12243;42.708;23.310;2023-02-28T12:32:24;95504.25;;;13.28;80.66
16451;BME280;12243;42.708;23.310;2023-02-28T12:34:55;95494.34;;;13.32;81.93
16451;BME280;12243;42.708;23.310;2023-02-28T12:37:27;95490.25;;;13.39;81.59
16451;BME280;12243;42.708;23.310;2023-02-28T12:40:01;95498.22;;;13.38;81.65
16451;BME280;12243;42.708;23.310;2023-02-28T12:42:33;95484.91;;;13.20;82.52
16451;BME280;12243;42.708;23.310;2023-02-28T12:45:09;95492.91;;;13.18;81.49
16451;BME280;12243;42.708;23.310;2023-02-28T12:47:40;95482.00;;;13.13;80.62
16451;BME280;12243;42.708;23.310;2023-02-28T12:50:11;95490.53;;;12.84;82.68
16451;BME280;12243;42.708;23.310;2023-02-28T12:52:46;95487.69;;;12.87;83.12
16451;BME280;12243;42.708;23.310;2023-02-28T12:55:21;95494.28;;;12.92;82.73
16451;BME280;12243;42.708;23.310;2023-02-28T12:57:57;95491.22;;;13.07;82.44
16451;BME280;12243;42.708;23.310;2023-02-28T13:00:32;95489.06;;;13.22;81.80
16451;BME280;12243;42.708;23.310;2023-02-28T13:03:19;95492.91;;;13.18;80.97
16451;BME280;12243;42.708;23.310;2023-02-28T13:06:09;95482.78;;;13.34;81.26
16451;BME280;12243;42.708;23.310;2023-02-28T13:09:02;95485.56;;;13.52;79.89
16451;BME280;12243;42.708;23.310;2023-02-28T13:11:39;95491.66;;;13.53;79.93
16451;BME280;12243;42.708;23.310;2023-02-28T13:14:19;95489.03;;;13.53;80.02
16451;BME280;12243;42.708;23.310;2023-02-28T13:17:01;95488.59;;;13.48;80.41
16451;BME280;12243;42.708;23.310;2023-02-28T13:19:31;95485.03;;;13.58;80.28